Time;durP1;ratioP1;P1;durP2;ratioP2;P2;SDS_P1;SDS_P2;PMS_P1;PMS_P2;Temp;Humidity;BMP_temperature;BMP_pressure;BME280_temperature;BME280_humidity;BME280_pressure;Samples;Min_cycle;Max_cycle;Signal;HPM_P1;HPM_P2
2023/09/30 00:01:08;;;;;;;10.95;6.82;;;24.10;44.70;;;;;;7402615;19;19939;-71
2023/09/30 00:03:33;;;;;;;12.32;7.22;;;24.20;45.10;;;;;;7402332;19;19927;-72
2023/09/30 00:05:59;;;;;;;15.15;7.35;;;24.20;44.90;;;;;;7401892;19;19935;-71
2023/09/30 00:08:25;;;;;;;13.38;6.80;;;24.20;44.30;;;;;;7403915;19;19935;-72
2023/09/30 00:10:53;;;;;;;7.88;5.22;;;24.20;43.90;;;;;;7402371;19;19937;-72
2023/09/30 00:13:18;;;;;;;7.93;4.88;;;24.30;39.50;;;;;;7402082;19;19922;-71
2023/09/30 00:15:44;;;;;;;8.38;5.40;;;24.30;39.20;;;;;;7402522;19;19929;-71
2023/09/30 00:18:10;;;;;;;8.95;4.63;;;24.30;39.10;;;;;;7400434;19;19918;-71
2023/09/30 00:20:36;;;;;;;8.98;5.20;;;24.30;38.50;;;;;;7405186;19;19959;-71
2023/09/30 00:23:02;;;;;;;8.15;5.85;;;24.30;39.10;;;;;;7400810;19;20458;-71
2023/09/30 00:25:28;;;;;;;8.05;5.70;;;24.30;39.50;;;;;;7402073;19;19921;-71
2023/09/30 00:27:55;;;;;;;10.38;5.95;;;24.20;40.10;;;;;;7403699;19;20375;-72
2023/09/30 00:30:21;;;;;;;9.88;6.40;;;24.20;40.80;;;;;;7402925;19;19922;-72
2023/09/30 00:32:47;;;;;;;9.57;6.20;;;24.20;41.90;;;;;;7402641;19;19947;-71
2023/09/30 00:35:13;;;;;;;10.15;6.15;;;24.20;42.00;;;;;;7401910;19;19918;-72
2023/09/30 00:37:39;;;;;;;13.75;7.38;;;24.10;42.40;;;;;;7401700;19;19922;-72
2023/09/30 00:40:06;;;;;;;11.02;6.28;;;24.10;42.70;;;;;;7400046;19;19945;-72
2023/09/30 00:42:32;;;;;;;9.55;5.63;;;24.10;42.80;;;;;;7402151;19;19940;-72
2023/09/30 00:44:58;;;;;;;9.00;4.57;;;24.10;41.70;;;;;;7401383;19;19914;-72
2023/09/30 00:47:24;;;;;;;7.07;3.70;;;24.10;39.40;;;;;;7398620;19;19919;-72
2023/09/30 00:49:50;;;;;;;8.80;4.00;;;24.20;38.20;;;;;;7404355;19;20346;-73
2023/09/30 00:52:17;;;;;;;6.05;3.60;;;24.20;35.60;;;;;;7397999;19;19918;-71
2023/09/30 00:54:46;;;;;;;4.97;2.58;;;24.40;33.40;;;;;;7380745;19;20234;-73
2023/09/30 00:57:12;;;;;;;7.07;4.25;;;24.40;32.20;;;;;;7399718;19;19911;-71
2023/09/30 00:59:40;;;;;;;5.07;2.70;;;24.70;30.90;;;;;;7400133;19;19946;-72
2023/09/30 01:02:07;;;;;;;4.10;2.50;;;24.90;30.10;;;;;;7397914;19;19936;-72
2023/09/30 01:04:33;;;;;;;6.68;3.00;;;25.00;30.10;;;;;;7400544;19;19931;-72
2023/09/30 01:06:59;;;;;;;5.97;2.88;;;25.10;30.00;;;;;;7400923;19;20465;-71
2023/09/30 01:09:25;;;;;;;5.65;2.65;;;25.10;30.10;;;;;;7400862;19;19986;-73
2023/09/30 01:11:51;;;;;;;6.60;3.00;;;25.20;30.00;;;;;;7401271;19;20440;-73
2023/09/30 01:14:42;;;;;;;;;;;25.20;30.70;;;;;;7404956;19;19941;-72
2023/09/30 01:17:08;;;;;;;7.20;3.20;;;25.20;30.00;;;;;;7398591;19;19950;-71
2023/09/30 01:19:35;;;;;;;6.00;2.70;;;25.20;30.00;;;;;;7400402;19;19929;-72
2023/09/30 01:22:05;;;;;;;5.88;3.15;;;25.30;30.00;;;;;;7400015;19;20046;-71
2023/09/30 01:24:38;;;;;;;4.20;2.45;;;25.30;30.40;;;;;;7401901;19;19929;-72
2023/09/30 01:27:04;;;;;;;5.10;2.50;;;25.30;29.70;;;;;;7399000;19;19918;-72
2023/09/30 01:29:29;;;;;;;5.70;2.75;;;25.20;29.60;;;;;;7403975;19;19919;-71
2023/09/30 01:31:56;;;;;;;4.90;2.50;;;25.20;29.60;;;;;;7401195;19;19929;-71
2023/09/30 01:34:21;;;;;;;4.00;2.05;;;25.20;29.20;;;;;;7400688;19;19990;-73
2023/09/30 01:36:47;;;;;;;4.95;2.40;;;25.30;29.60;;;;;;7401015;19;19935;-72
2023/09/30 01:39:13;;;;;;;4.80;2.50;;;25.20;29.40;;;;;;7400073;19;19923;-71
2023/09/30 01:41:40;;;;;;;6.00;2.40;;;25.20;29.80;;;;;;7399816;19;19918;-72
2023/09/30 01:44:08;;;;;;;5.55;1.80;;;25.30;29.60;;;;;;7400403;19;20003;-72
2023/09/30 01:46:34;;;;;;;5.50;2.58;;;25.30;29.70;;;;;;7379426;19;20362;-71
2023/09/30 01:49:00;;;;;;;4.68;2.20;;;25.30;29.70;;;;;;7398831;19;19921;-71
2023/09/30 01:51:27;;;;;;;4.50;2.47;;;25.30;29.40;;;;;;7398326;19;19918;-71
2023/09/30 01:53:53;;;;;;;4.75;2.58;;;25.30;29.40;;;;;;7400562;19;20340;-71
2023/09/30 01:56:19;;;;;;;7.10;2.80;;;25.40;28.80;;;;;;7397827;19;19937;-72
2023/09/30 01:58:45;;;;;;;5.72;2.25;;;25.40;28.80;;;;;;7400290;19;19921;-71
2023/09/30 02:01:11;;;;;;;5.35;2.40;;;25.50;28.60;;;;;;7396428;19;20309;-74
2023/09/30 02:03:38;;;;;;;4.07;2.53;;;25.50;28.40;;;;;;7402029;19;19922;-73
2023/09/30 02:06:04;;;;;;;7.53;2.90;;;25.50;28.10;;;;;;7396516;19;19925;-72
2023/09/30 02:08:30;;;;;;;4.30;2.40;;;25.50;28.10;;;;;;7401814;19;19918;-72
2023/09/30 02:10:56;;;;;;;5.45;2.33;;;25.50;28.20;;;;;;7399029;19;19923;-71
2023/09/30 02:13:22;;;;;;;4.97;2.50;;;25.40;28.40;;;;;;7396535;19;20187;-71
2023/09/30 02:15:48;;;;;;;4.63;2.38;;;25.50;28.40;;;;;;7399401;19;19960;-71
2023/09/30 02:18:14;;;;;;;4.20;2.35;;;25.50;28.50;;;;;;7396723;19;19921;-72
2023/09/30 02:20:40;;;;;;;;;;;25.40;29.00;;;;;;7401967;19;19922;-73
2023/09/30 02:23:10;;;;;;;4.80;2.70;;;25.30;29.60;;;;;;7399659;19;19918;-72
2023/09/30 02:25:37;;;;;;;4.10;2.55;;;25.10;30.20;;;;;;7397860;19;20033;-72
2023/09/30 02:28:04;;;;;;;5.88;2.83;;;25.00;30.90;;;;;;7400103;19;19930;-72
2023/09/30 02:30:30;;;;;;;5.82;2.83;;;24.80;31.80;;;;;;7400091;19;19914;-72
2023/09/30 02:32:57;;;;;;;6.72;2.83;;;24.70;32.20;;;;;;7401494;19;20205;-72
2023/09/30 02:35:23;;;;;;;6.55;2.83;;;24.70;32.50;;;;;;7398170;19;19939;-72
2023/09/30 02:37:52;;;;;;;5.38;3.22;;;24.60;32.50;;;;;;7402560;19;19929;-72
2023/09/30 02:40:19;;;;;;;4.82;2.60;;;24.60;32.70;;;;;;7399433;19;19933;-71
2023/09/30 02:42:46;;;;;;;6.75;2.80;;;24.50;32.90;;;;;;7401934;19;20353;-73
2023/09/30 02:45:12;;;;;;;4.78;2.70;;;24.50;32.80;;;;;;7397089;19;19925;-72
2023/09/30 02:47:39;;;;;;;5.50;2.72;;;24.50;33.10;;;;;;7402765;19;19922;-71
2023/09/30 02:50:12;;;;;;;4.30;2.67;;;24.50;33.20;;;;;;7400524;19;19922;-72
2023/09/30 02:52:41;;;;;;;5.30;2.35;;;24.50;33.40;;;;;;7401773;19;19927;-72
2023/09/30 02:55:11;;;;;;;5.43;2.85;;;24.50;33.40;;;;;;7398665;19;19919;-71
2023/09/30 02:57:37;;;;;;;6.75;2.70;;;24.40;33.70;;;;;;7398827;19;19929;-72
2023/09/30 03:00:23;;;;;;;5.38;3.20;;;24.30;33.30;;;;;;7399402;19;19952;-71
2023/09/30 03:02:50;;;;;;;5.15;3.08;;;24.40;33.10;;;;;;7400349;19;19926;-72
2023/09/30 03:05:17;;;;;;;5.22;2.90;;;24.40;33.00;;;;;;7398688;19;20358;-72
2023/09/30 03:07:43;;;;;;;4.35;2.67;;;24.40;33.20;;;;;;7397776;19;19989;-72
2023/09/30 03:10:10;;;;;;;4.95;2.55;;;24.30;33.40;;;;;;7396687;19;19922;-72
2023/09/30 03:12:36;;;;;;;4.88;2.97;;;24.30;33.70;;;;;;7400095;19;19926;-73
2023/09/30 03:15:05;;;;;;;5.03;2.92;;;24.20;33.70;;;;;;7398482;19;19934;-73
2023/09/30 03:17:32;;;;;;;7.00;2.63;;;24.20;34.00;;;;;;7395179;19;19918;-72
2023/09/30 03:19:58;;;;;;;5.95;2.88;;;24.00;34.00;;;;;;7397069;19;19918;-72
2023/09/30 03:22:26;;;;;;;5.78;3.47;;;24.00;34.20;;;;;;7397843;19;19918;-72
2023/09/30 03:24:56;;;;;;;5.78;2.65;;;24.00;34.60;;;;;;7400220;19;19989;-72
2023/09/30 03:27:22;;;;;;;4.72;2.40;;;24.10;34.30;;;;;;7403483;19;19914;-72
2023/09/30 03:29:49;;;;;;;4.80;2.53;;;24.10;34.10;;;;;;7406432;19;19914;-72
2023/09/30 03:32:15;;;;;;;4.80;2.45;;;24.10;34.10;;;;;;7403796;19;19919;-72
2023/09/30 03:34:44;;;;;;;6.00;2.47;;;24.00;34.10;;;;;;7403329;19;19917;-72
2023/09/30 03:37:10;;;;;;;7.20;2.80;;;24.00;34.30;;;;;;7403571;19;19923;-72
2023/09/30 03:39:36;;;;;;;5.53;2.65;;;23.90;34.50;;;;;;7405777;19;19994;-72
2023/09/30 03:42:03;;;;;;;5.88;3.15;;;23.90;35.00;;;;;;7404266;19;20332;-72
2023/09/30 03:44:29;;;;;;;5.15;2.45;;;24.00;34.10;;;;;;7403079;19;19922;-72
2023/09/30 03:46:55;;;;;;;4.57;2.80;;;24.00;33.70;;;;;;7404737;19;19918;-72
2023/09/30 03:49:20;;;;;;;4.78;2.50;;;23.90;34.30;;;;;;7404223;19;20338;-72
2023/09/30 03:51:47;;;;;;;7.72;3.10;;;23.90;35.20;;;;;;7402871;19;19929;-72
2023/09/30 03:54:17;;;;;;;6.50;3.10;;;23.70;35.50;;;;;;7383283;19;19911;-72
2023/09/30 03:56:45;;;;;;;6.43;2.67;;;23.70;35.90;;;;;;7402709;19;19923;-72
2023/09/30 03:59:11;;;;;;;6.97;3.45;;;23.70;36.50;;;;;;7382195;19;19937;-71
2023/09/30 04:01:39;;;;;;;5.28;3.25;;;23.60;36.50;;;;;;7405794;19;19978;-72
2023/09/30 04:04:07;;;;;;;5.90;3.17;;;23.60;37.10;;;;;;7402674;19;19949;-72
2023/09/30 04:06:33;;;;;;;5.60;3.75;;;23.60;37.60;;;;;;7404706;19;19922;-72
2023/09/30 04:08:59;;;;;;;5.60;3.28;;;23.50;39.60;;;;;;7404788;19;20284;-71
2023/09/30 04:11:25;;;;;;;8.65;4.65;;;23.50;39.10;;;;;;7398707;19;19919;-72
2023/09/30 04:13:50;;;;;;;7.43;4.68;;;23.40;40.50;;;;;;7382629;19;20030;-71
2023/09/30 04:16:18;;;;;;;7.75;4.57;;;23.30;42.00;;;;;;7398204;19;19911;-71
2023/09/30 04:18:46;;;;;;;8.32;4.32;;;23.30;43.10;;;;;;7402895;19;20002;-71
2023/09/30 04:21:11;;;;;;;7.53;5.05;;;23.20;43.60;;;;;;7401916;19;19936;-71
2023/09/30 04:23:37;;;;;;;8.50;5.10;;;23.20;45.20;;;;;;7403278;19;19915;-70
2023/09/30 04:26:04;;;;;;;8.68;5.00;;;23.20;45.60;;;;;;7399028;19;19919;-70
2023/09/30 04:28:30;;;;;;;8.50;4.35;;;23.10;45.10;;;;;;7400011;19;20417;-71
2023/09/30 04:30:56;;;;;;;10.45;4.30;;;23.10;45.50;;;;;;7401235;19;19914;-72
2023/09/30 04:33:24;;;;;;;7.85;4.78;;;23.10;45.90;;;;;;7402415;19;20316;-71
2023/09/30 04:35:50;;;;;;;7.25;4.32;;;23.10;46.40;;;;;;7400858;19;19926;-72
2023/09/30 04:38:15;;;;;;;8.38;4.82;;;23.10;46.60;;;;;;7401957;19;19982;-71
2023/09/30 04:40:44;;;;;;;9.88;5.32;;;23.10;46.30;;;;;;7401885;19;19925;-70
2023/09/30 04:43:10;;;;;;;11.30;5.18;;;23.00;46.80;;;;;;7402008;19;19919;-71
2023/09/30 04:45:36;;;;;;;6.50;4.20;;;23.00;47.10;;;;;;7402016;19;20371;-71
2023/09/30 04:48:02;;;;;;;6.15;4.40;;;23.00;47.50;;;;;;7402837;19;20085;-71
2023/09/30 04:50:30;;;;;;;8.25;5.10;;;23.00;47.90;;;;;;7400602;19;19919;-72
2023/09/30 04:52:56;;;;;;;7.82;5.00;;;23.00;48.30;;;;;;7402590;19;20003;-71
2023/09/30 04:55:22;;;;;;;9.98;5.75;;;22.90;50.20;;;;;;7400776;19;19931;-71
2023/09/30 04:57:48;;;;;;;8.45;5.45;;;22.90;51.70;;;;;;7398314;19;19918;-71
2023/09/30 05:00:15;;;;;;;;;;;22.90;52.70;;;;;;7401092;19;19928;-70
2023/09/30 05:02:40;;;;;;;9.73;4.53;;;22.90;54.60;;;;;;7402941;19;20279;-72
2023/09/30 05:05:07;;;;;;;11.75;5.50;;;22.80;55.30;;;;;;7399648;19;19926;-72
2023/09/30 05:07:33;;;;;;;9.70;5.40;;;22.80;56.10;;;;;;7402701;19;20331;-71
2023/09/30 05:10:05;;;;;;;12.98;5.63;;;22.70;56.50;;;;;;7403200;19;20259;-72
2023/09/30 05:12:32;;;;;;;9.13;5.32;;;22.70;56.90;;;;;;7400289;19;19918;-71
2023/09/30 05:14:59;;;;;;;9.55;5.30;;;22.60;57.20;;;;;;7401029;19;19910;-71
2023/09/30 05:17:24;;;;;;;8.93;4.45;;;22.60;57.80;;;;;;7401354;19;20367;-72
2023/09/30 05:19:50;;;;;;;10.73;5.25;;;22.50;58.30;;;;;;7400402;19;19921;-72
2023/09/30 05:22:18;;;;;;;8.43;5.03;;;22.50;58.70;;;;;;7398377;19;19917;-72
2023/09/30 05:24:44;;;;;;;9.52;5.53;;;22.50;58.90;;;;;;7397060;19;19970;-72
2023/09/30 05:27:10;;;;;;;9.25;5.88;;;22.50;59.40;;;;;;7398504;19;19915;-73
2023/09/30 05:29:36;;;;;;;11.18;5.68;;;22.40;60.00;;;;;;7398925;19;19950;-72
2023/09/30 05:32:02;;;;;;;8.50;4.90;;;22.50;60.90;;;;;;7398121;19;20332;-71
2023/09/30 05:34:28;;;;;;;10.05;5.45;;;22.50;60.30;;;;;;7397248;19;19914;-72
2023/09/30 05:36:54;;;;;;;9.90;5.07;;;22.50;59.20;;;;;;7380758;19;19920;-76
2023/09/30 05:39:20;;;;;;;8.52;4.20;;;22.50;58.60;;;;;;7398895;19;19948;-73
2023/09/30 05:41:47;;;;;;;7.80;4.38;;;22.40;57.70;;;;;;7401233;19;19915;-72
2023/09/30 05:44:14;;;;;;;8.57;5.35;;;22.50;56.20;;;;;;7398842;19;19933;-71
2023/09/30 05:46:40;;;;;;;7.65;4.38;;;22.50;56.10;;;;;;7391043;19;19934;-72
2023/09/30 05:49:11;;;;;;;7.10;4.97;;;22.50;55.50;;;;;;7394688;19;19910;-73
2023/09/30 05:51:37;;;;;;;7.47;4.43;;;22.40;55.00;;;;;;7402225;19;19939;-73
2023/09/30 05:54:04;;;;;;;7.95;4.38;;;22.50;54.60;;;;;;7399354;19;19914;-72
2023/09/30 05:56:30;;;;;;;7.63;4.07;;;22.50;53.70;;;;;;7400674;19;20375;-72
2023/09/30 05:58:57;;;;;;;7.43;4.13;;;22.50;53.20;;;;;;7399368;19;19950;-73
2023/09/30 06:01:23;;;;;;;7.60;4.13;;;22.60;51.00;;;;;;7400613;19;19942;-73
2023/09/30 06:03:49;;;;;;;5.95;3.53;;;22.70;49.40;;;;;;7400602;19;19939;-72
2023/09/30 06:06:18;;;;;;;6.07;3.58;;;22.80;49.10;;;;;;7402421;19;20342;-74
2023/09/30 06:08:46;;;;;;;7.45;3.88;;;22.80;48.00;;;;;;7399198;19;19998;-71
2023/09/30 06:11:19;;;;;;;5.43;2.58;;;22.90;46.60;;;;;;7393121;19;20283;-73
2023/09/30 06:13:46;;;;;;;5.50;3.65;;;22.90;45.90;;;;;;7393915;19;19918;-73
2023/09/30 06:16:12;;;;;;;7.68;4.00;;;23.00;45.70;;;;;;7395704;19;19919;-72
2023/09/30 06:18:39;;;;;;;7.68;4.30;;;23.00;45.50;;;;;;7394363;19;20422;-74
2023/09/30 06:21:06;;;;;;;6.05;3.58;;;23.10;45.00;;;;;;7397651;19;20364;-72
2023/09/30 06:23:32;;;;;;;7.15;3.40;;;23.20;44.00;;;;;;7398882;19;20347;-72
2023/09/30 06:26:02;;;;;;;7.57;3.63;;;23.30;43.40;;;;;;7374911;19;20039;-74
2023/09/30 06:28:31;;;;;;;5.55;3.33;;;23.40;43.00;;;;;;7388438;19;19937;-73
2023/09/30 06:30:57;;;;;;;7.03;3.50;;;23.50;42.60;;;;;;7392989;19;19914;-75
2023/09/30 06:33:23;;;;;;;;;;;23.60;42.70;;;;;;7401299;19;19922;-73
2023/09/30 06:35:52;;;;;;;7.55;3.25;;;23.70;42.60;;;;;;7398549;19;19944;-74
2023/09/30 06:38:21;;;;;;;6.20;3.30;;;23.80;42.60;;;;;;7398798;19;19922;-75
2023/09/30 06:40:48;;;;;;;8.45;3.55;;;23.80;41.90;;;;;;7399388;19;19924;-73
2023/09/30 06:43:17;;;;;;;6.30;3.42;;;23.90;41.70;;;;;;7397663;19;19918;-74
2023/09/30 06:45:44;;;;;;;7.55;3.88;;;23.90;41.80;;;;;;7380957;19;19927;-76
2023/09/30 06:48:14;;;;;;;6.47;3.72;;;24.00;41.80;;;;;;7398572;19;19929;-72
2023/09/30 06:50:48;;;;;;;7.10;3.00;;;24.00;41.80;;;;;;7377317;19;19945;-72
2023/09/30 06:53:18;;;;;;;9.57;3.80;;;24.10;41.30;;;;;;7395194;19;20450;-72
2023/09/30 06:55:44;;;;;;;8.30;3.08;;;24.20;41.50;;;;;;7397879;19;19914;-73
2023/09/30 06:58:11;;;;;;;7.03;4.00;;;24.20;41.20;;;;;;7396594;19;19923;-73
2023/09/30 07:00:40;;;;;;;;;;;24.30;41.50;;;;;;7402125;19;19919;-72
2023/09/30 07:03:06;;;;;;;6.97;3.30;;;24.30;40.80;;;;;;7396168;19;20303;-73
2023/09/30 07:05:33;;;;;;;6.90;3.97;;;24.40;40.60;;;;;;7399879;19;19959;-73
2023/09/30 07:07:59;;;;;;;10.00;3.42;;;24.40;40.50;;;;;;7397447;19;19926;-74
2023/09/30 07:10:27;;;;;;;7.13;3.90;;;24.50;40.30;;;;;;7397725;19;19926;-73
2023/09/30 07:12:52;;;;;;;6.82;3.92;;;24.60;41.00;;;;;;7397283;19;19925;-73
2023/09/30 07:15:19;;;;;;;7.88;3.95;;;24.60;40.30;;;;;;7396540;19;19966;-71
2023/09/30 07:17:48;;;;;;;10.07;3.88;;;24.70;40.50;;;;;;7392188;19;19966;-72
2023/09/30 07:20:14;;;;;;;7.47;3.53;;;24.70;40.60;;;;;;7398202;19;19918;-73
2023/09/30 07:22:40;;;;;;;6.43;3.70;;;24.70;40.70;;;;;;7396158;19;19929;-73
2023/09/30 07:25:08;;;;;;;5.78;3.35;;;24.80;40.90;;;;;;7396318;19;19919;-73
2023/09/30 07:27:34;;;;;;;7.38;3.70;;;24.80;41.00;;;;;;7396501;19;19911;-73
2023/09/30 07:30:00;;;;;;;8.88;3.85;;;24.90;41.10;;;;;;7397642;19;19915;-72
2023/09/30 07:32:26;;;;;;;6.15;3.35;;;24.90;40.90;;;;;;7395356;19;19953;-72
2023/09/30 07:34:52;;;;;;;6.68;3.90;;;25.00;41.10;;;;;;7397677;19;19914;-72
2023/09/30 07:37:19;;;;;;;9.18;3.47;;;25.00;40.90;;;;;;7394014;19;19948;-72
2023/09/30 07:39:45;;;;;;;7.35;3.92;;;25.10;40.80;;;;;;7398021;19;19918;-72
2023/09/30 07:42:11;;;;;;;6.47;3.08;;;25.20;40.80;;;;;;7394176;19;20291;-72
2023/09/30 07:44:37;;;;;;;7.72;3.67;;;25.30;40.70;;;;;;7397186;19;19939;-73
2023/09/30 07:47:06;;;;;;;19.45;13.32;;;25.30;40.60;;;;;;7394919;19;19919;-73
2023/09/30 07:49:34;;;;;;;14.20;9.65;;;25.40;40.40;;;;;;7397070;19;19927;-73
2023/09/30 07:52:00;;;;;;;10.35;4.40;;;25.40;40.20;;;;;;7397693;19;19927;-72
2023/09/30 07:54:26;;;;;;;6.07;3.83;;;25.50;40.20;;;;;;7397199;19;20328;-73
2023/09/30 07:56:52;;;;;;;6.85;4.30;;;25.60;40.20;;;;;;7396494;19;19952;-73
2023/09/30 07:59:18;;;;;;;6.72;4.03;;;25.70;40.00;;;;;;7394220;19;19963;-72
2023/09/30 08:01:43;;;;;;;8.82;3.70;;;25.80;40.10;;;;;;7396702;19;19942;-72
2023/09/30 08:04:11;;;;;;;6.75;4.40;;;25.90;39.90;;;;;;7395032;19;19910;-73
2023/09/30 08:06:38;;;;;;;6.30;4.40;;;26.00;39.60;;;;;;7396470;19;19933;-73
2023/09/30 08:09:10;;;;;;;7.00;3.63;;;26.10;39.10;;;;;;7393548;19;19946;-73
2023/09/30 08:11:37;;;;;;;6.95;3.67;;;26.20;39.30;;;;;;7399768;19;19922;-72
2023/09/30 08:14:06;;;;;;;7.68;3.20;;;26.30;38.90;;;;;;7403087;19;20403;-73
2023/09/30 08:16:33;;;;;;;7.30;4.32;;;26.40;38.00;;;;;;7402596;19;19915;-73
2023/09/30 08:18:59;;;;;;;5.32;3.70;;;26.50;37.70;;;;;;7404494;19;20339;-71
2023/09/30 08:21:25;;;;;;;6.00;3.45;;;26.60;37.60;;;;;;7399769;19;20224;-72
2023/09/30 08:23:50;;;;;;;7.40;3.30;;;26.70;38.30;;;;;;7404020;19;19933;-72
2023/09/30 08:26:16;;;;;;;4.82;3.20;;;26.80;37.10;;;;;;7401063;19;20302;-73
2023/09/30 08:28:42;;;;;;;6.82;3.08;;;26.80;37.50;;;;;;7403453;19;19919;-73
2023/09/30 08:31:09;;;;;;;5.45;3.05;;;26.90;37.90;;;;;;7381479;19;20241;-73
2023/09/30 08:33:43;;;;;;;6.60;3.78;;;26.90;38.10;;;;;;7403837;19;20363;-72
2023/09/30 08:36:10;;;;;;;5.30;3.42;;;27.00;37.50;;;;;;7402226;19;20374;-73
2023/09/30 08:38:37;;;;;;;5.90;3.30;;;27.00;37.30;;;;;;7401186;19;19931;-72
2023/09/30 08:41:03;;;;;;;6.40;3.47;;;27.10;37.80;;;;;;7398205;19;19923;-72
2023/09/30 08:43:31;;;;;;;;;;;27.20;38.00;;;;;;7405587;19;19915;-72
2023/09/30 08:45:59;;;;;;;8.23;3.60;;;27.40;37.50;;;;;;7404252;19;19923;-74
2023/09/30 08:48:30;;;;;;;5.90;3.50;;;27.40;37.20;;;;;;7398842;19;19919;-72
2023/09/30 08:50:58;;;;;;;8.40;4.13;;;27.50;36.80;;;;;;7403719;19;19998;-73
2023/09/30 08:53:24;;;;;;;7.22;3.65;;;27.50;36.80;;;;;;7403943;19;19946;-73
2023/09/30 08:55:58;;;;;;;;;;;27.60;37.10;;;;;;7405216;19;19978;-74
2023/09/30 08:58:29;;;;;;;9.93;4.22;;;27.60;36.90;;;;;;7399745;19;19962;-73
2023/09/30 09:00:56;;;;;;;6.55;4.00;;;27.70;37.00;;;;;;7407138;19;19919;-73
2023/09/30 09:03:22;;;;;;;7.70;3.88;;;27.80;36.80;;;;;;7407316;19;19930;-74
2023/09/30 09:05:59;;;;;;;7.22;3.55;;;27.90;36.50;;;;;;7403346;19;19940;-74
2023/09/30 09:08:32;;;;;;;6.00;3.65;;;28.20;36.20;;;;;;7403920;19;19938;-73
2023/09/30 09:11:00;;;;;;;7.75;4.50;;;28.40;35.70;;;;;;7404230;19;19914;-73
2023/09/30 09:13:27;;;;;;;6.22;3.22;;;28.50;35.40;;;;;;7402605;19;19915;-74
2023/09/30 09:16:07;;;;;;;6.78;3.85;;;28.60;35.10;;;;;;7407500;19;19986;-74
2023/09/30 09:18:33;;;;;;;6.45;3.97;;;28.60;35.40;;;;;;7402671;19;19911;-74
2023/09/30 09:21:27;;;;;;;10.30;4.53;;;28.60;35.40;;;;;;7408061;19;19939;-73
2023/09/30 09:23:54;;;;;;;7.43;4.30;;;28.80;34.80;;;;;;7398331;19;20261;-74
2023/09/30 09:26:36;;;;;;;7.72;4.35;;;28.50;35.30;;;;;;7402027;19;20330;-73
2023/09/30 09:29:04;;;;;;;8.07;4.18;;;28.50;35.40;;;;;;7404934;19;20299;-73
2023/09/30 09:31:36;;;;;;;6.88;3.88;;;28.50;35.20;;;;;;7400516;19;19926;-74
2023/09/30 09:34:03;;;;;;;8.15;4.65;;;28.90;35.20;;;;;;7403731;19;19930;-73
2023/09/30 09:36:47;;;;;;;6.65;4.13;;;28.90;34.30;;;;;;7405984;19;19911;-73
2023/09/30 09:39:13;;;;;;;7.30;4.30;;;29.00;34.40;;;;;;7402750;19;19922;-73
2023/09/30 09:41:51;;;;;;;;;;;29.20;34.10;;;;;;7406492;19;19926;-73
2023/09/30 09:44:19;;;;;;;6.88;4.05;;;29.30;33.60;;;;;;7397012;19;20003;-74
2023/09/30 09:46:47;;;;;;;7.43;4.28;;;29.20;33.80;;;;;;7402357;19;19927;-73
2023/09/30 09:49:15;;;;;;;5.93;3.58;;;28.90;34.30;;;;;;7400296;19;19926;-72
2023/09/30 09:51:44;;;;;;;8.45;4.45;;;28.40;34.60;;;;;;7400510;19;19930;-72
2023/09/30 09:54:10;;;;;;;5.95;3.85;;;28.50;35.30;;;;;;7393149;19;19922;-73
2023/09/30 09:56:38;;;;;;;8.18;3.97;;;28.50;35.50;;;;;;7400613;19;19907;-74
2023/09/30 09:59:06;;;;;;;7.10;3.92;;;28.80;34.70;;;;;;7395536;19;19974;-73
2023/09/30 10:01:34;;;;;;;8.88;3.85;;;29.10;34.20;;;;;;7402696;19;20017;-74
2023/09/30 10:04:01;;;;;;;7.55;3.95;;;29.60;33.50;;;;;;7403936;19;19915;-74
2023/09/30 10:06:28;;;;;;;6.80;3.25;;;29.80;32.50;;;;;;7401704;19;20656;-74
2023/09/30 10:08:57;;;;;;;5.95;3.53;;;29.60;33.00;;;;;;7401427;19;19918;-73
2023/09/30 10:11:23;;;;;;;6.18;3.70;;;29.70;32.30;;;;;;7400758;19;19949;-73
2023/09/30 10:13:57;;;;;;;5.78;3.40;;;29.70;31.90;;;;;;7399084;19;19915;-74
2023/09/30 10:16:35;;;;;;;5.47;3.92;;;29.70;32.70;;;;;;7400529;19;19960;-74
2023/09/30 10:19:24;;;;;;;7.18;3.88;;;29.40;32.50;;;;;;7398230;19;19919;-74
2023/09/30 10:22:27;;;;;;;9.60;4.10;;;29.80;32.20;;;;;;7398786;19;19952;-74
2023/09/30 10:24:57;;;;;;;7.20;4.25;;;30.00;31.70;;;;;;7402423;19;19921;-74
2023/09/30 10:27:34;;;;;;;6.40;3.65;;;29.90;31.40;;;;;;7401587;19;20370;-74
2023/09/30 10:30:16;;;;;;;6.78;4.18;;;30.20;30.40;;;;;;7401421;19;19918;-74
2023/09/30 10:32:51;;;;;;;7.68;4.15;;;30.60;30.00;;;;;;7399589;19;19907;-73
2023/09/30 10:35:41;;;;;;;6.07;3.75;;;31.10;29.40;;;;;;7393125;19;19933;-74
2023/09/30 10:38:22;;;;;;;6.65;3.85;;;31.20;29.00;;;;;;7399473;19;19950;-74
2023/09/30 10:40:50;;;;;;;5.47;4.30;;;31.10;29.50;;;;;;7403340;19;19907;-73
2023/09/30 10:43:36;;;;;;;5.70;4.22;;;31.00;29.70;;;;;;7381421;19;19915;-75
2023/09/30 10:46:05;;;;;;;7.07;4.15;;;30.70;30.10;;;;;;7401475;19;19974;-75
2023/09/30 10:48:31;;;;;;;5.88;4.07;;;31.30;29.40;;;;;;7400855;19;19930;-74
2023/09/30 10:51:00;;;;;;;5.70;3.70;;;31.40;28.70;;;;;;7403475;19;19915;-75
2023/09/30 10:53:28;;;;;;;5.38;3.50;;;31.00;28.60;;;;;;7398339;19;19923;-74
2023/09/30 10:56:01;;;;;;;5.75;4.25;;;31.00;29.40;;;;;;7397942;19;19930;-74
2023/09/30 10:58:44;;;;;;;5.82;3.78;;;31.60;29.30;;;;;;7400893;19;19915;-74
2023/09/30 11:01:11;;;;;;;6.18;4.32;;;31.50;28.60;;;;;;7402067;19;19990;-74
2023/09/30 11:03:38;;;;;;;5.95;3.90;;;30.90;28.60;;;;;;7403732;19;19924;-74
2023/09/30 11:06:04;;;;;;;6.07;4.45;;;31.50;28.70;;;;;;7402597;19;19926;-73
2023/09/30 11:08:30;;;;;;;;;;;31.10;28.40;;;;;;7403125;19;19922;-73
2023/09/30 11:10:56;;;;;;;6.78;4.07;;;31.60;28.40;;;;;;7399895;19;19914;-75
2023/09/30 11:13:22;;;;;;;7.45;4.47;;;31.50;28.20;;;;;;7395775;19;21340;-74
2023/09/30 11:16:01;;;;;;;6.88;4.53;;;31.60;28.70;;;;;;7400447;19;19914;-75
2023/09/30 11:18:27;;;;;;;6.88;5.22;;;31.70;28.20;;;;;;7398876;19;20028;-74
2023/09/30 11:21:11;;;;;;;6.57;4.18;;;31.50;28.00;;;;;;7400092;19;19940;-74
2023/09/30 11:23:38;;;;;;;5.45;4.30;;;31.10;28.60;;;;;;7398571;19;19919;-74
2023/09/30 11:26:04;;;;;;;6.75;4.63;;;31.80;28.40;;;;;;7396940;19;19939;-74
2023/09/30 11:28:41;;;;;;;5.85;4.20;;;31.90;28.30;;;;;;7399330;19;20967;-74
2023/09/30 11:31:18;;;;;;;6.90;4.75;;;32.10;27.70;;;;;;7389601;19;19918;-75
2023/09/30 11:33:56;;;;;;;5.80;4.43;;;32.00;27.60;;;;;;7398446;19;19918;-75
2023/09/30 11:36:23;;;;;;;5.80;4.53;;;32.40;26.70;;;;;;7395619;19;19938;-75
2023/09/30 11:38:50;;;;;;;6.60;4.47;;;32.00;27.30;;;;;;7398803;19;19923;-74
2023/09/30 11:41:18;;;;;;;7.53;4.03;;;31.80;27.80;;;;;;7388961;19;19922;-75
2023/09/30 11:44:11;;;;;;;6.25;4.15;;;31.10;27.90;;;;;;7393522;19;20251;-75
2023/09/30 11:46:55;;;;;;;6.20;4.90;;;31.50;28.70;;;;;;7394500;19;19926;-75
2023/09/30 11:49:48;;;;;;;6.57;4.90;;;31.80;28.50;;;;;;7407015;19;19914;-74
2023/09/30 11:52:15;;;;;;;7.30;4.65;;;31.10;28.80;;;;;;7389394;19;19918;-74
2023/09/30 11:54:45;;;;;;;6.43;4.65;;;31.20;29.00;;;;;;7402619;19;19927;-73
2023/09/30 11:57:18;;;;;;;7.75;4.18;;;31.70;28.90;;;;;;7390477;19;19958;-73
2023/09/30 11:59:46;;;;;;;5.55;4.18;;;32.10;28.30;;;;;;7405391;19;19915;-73
2023/09/30 12:02:14;;;;;;;6.45;4.47;;;32.40;28.00;;;;;;7394859;19;19999;-74
2023/09/30 12:04:41;;;;;;;5.85;4.50;;;32.60;27.50;;;;;;7394533;19;19955;-72
2023/09/30 12:07:08;;;;;;;6.43;4.38;;;31.70;28.00;;;;;;7394829;19;19922;-72
2023/09/30 12:09:37;;;;;;;7.22;4.72;;;32.20;28.00;;;;;;7402054;19;20331;-75
2023/09/30 12:12:03;;;;;;;7.13;5.05;;;32.60;27.60;;;;;;7399623;19;19919;-74
2023/09/30 12:14:30;;;;;;;6.93;5.85;;;32.00;27.80;;;;;;7401177;19;19995;-75
2023/09/30 12:16:56;;;;;;;6.22;4.78;;;32.00;28.20;;;;;;7407926;19;20370;-75
2023/09/30 12:19:23;;;;;;;7.03;5.07;;;31.10;28.00;;;;;;7399607;19;19964;-73
2023/09/30 12:21:50;;;;;;;7.57;5.10;;;31.40;29.30;;;;;;7394202;19;20295;-74
2023/09/30 12:24:19;;;;;;;6.32;4.63;;;31.50;28.80;;;;;;7403045;19;19934;-74
2023/09/30 12:26:49;;;;;;;9.85;5.90;;;31.50;28.60;;;;;;7400683;19;19915;-74
2023/09/30 12:29:21;;;;;;;6.38;5.05;;;31.10;28.40;;;;;;7390513;19;19923;-74
2023/09/30 12:31:49;;;;;;;7.20;4.90;;;31.10;28.50;;;;;;7389259;19;19942;-74
2023/09/30 12:34:16;;;;;;;6.18;4.40;;;30.90;29.50;;;;;;7400807;19;20367;-75
2023/09/30 12:36:43;;;;;;;5.18;4.13;;;31.40;28.40;;;;;;7391028;19;19982;-75
2023/09/30 12:39:12;;;;;;;5.72;3.95;;;30.80;28.30;;;;;;7403904;19;20563;-74
2023/09/30 12:41:42;;;;;;;6.60;4.75;;;31.70;28.50;;;;;;7398425;19;19923;-75
2023/09/30 12:44:10;;;;;;;7.18;4.55;;;31.50;28.50;;;;;;7391174;19;19919;-73
2023/09/30 12:46:37;;;;;;;5.95;4.80;;;31.60;28.20;;;;;;7400898;19;19915;-73
2023/09/30 12:49:04;;;;;;;6.28;5.35;;;31.10;28.80;;;;;;7400974;19;19947;-73
2023/09/30 12:51:30;;;;;;;5.85;4.20;;;31.60;29.00;;;;;;7403393;19;19951;-73
2023/09/30 12:53:57;;;;;;;6.50;4.80;;;31.20;27.90;;;;;;7395960;19;19927;-73